map of CCF home
CCF - Airport
Location
City:  Carcassonne, Languedoc-Roussillon, France
Name:Salvaza
ICAO:LFMK
IATA:CCF

Details
Type:Airport (Aerodrome, Airfield)
Use:Public/Civil
Latitude:4312'57"N (43.215817)
Longitude:218'31"E (2.308544)
Elevation:433 ft (132 m)
Variation:0.94E (WMM2015 magnetic declination)
0.12 annual change
Runways:2
Longest:6726 × 148 ft (2050 × 45 m)

Time
Time Zone:UTC+1 (DST+2)
Local Time:

Weather
METAR:LFMK 191600Z AUTO 10004KT 060V130 CAVOK 21/14 Q1017 BECMG 28010KT
TAF:LFMK 191400Z 1915/2015 27005KT 9999 FEW050
BECMG 1915/1917 28010KT CAVOK PROB40
TEMPO 2003/2011 2000 BR BKN010

Related Locations
Nearby:
Farthest:CHT: 12362 mi / 19895 km
Waitangi [Tuuta], CIT, NZ

Find:

   beyond  
but within

Other Information
Maps:
NOTAMs:
Links:
Sources:

  
  • flag of France
  • flag of Languedoc-Roussillon
  

Sectional Chart

Flight Planning
at skyvector.com

Satellite Image

Google Maps Satellite view

 

Copyright © 2004-2018 Karl L. Swartz. All rights reserved.
The Great Circle Mapper name and logo are trademarks of the Great Circle Mapper.
All other trademarks mentioned herein belong to their respective owners.
Please see credits for attibutions and further copyright information.

  Follow gcmap on Facebook Follow gcmap on Twitter Follow gcmap on Google+ GCmap on LinkedIn

hCard Microformat

Geo Microformat